Khaskovo, Bulgaria
Current Conditions -  °F | °C
As of 8:00 PM on Monday 24 Nov 2014 (Local Time) from LBPD Reporting Station
Drizzle Drizzle  
Wind Chill: 39°   Ceiling: 4000
Heat Index: 43°   Visibility: 6mi
Dew Point: 39°   Wind: 7mph
Humidity: 87%   Direction: 110°ESE
Pressure: 30.3"   Gusts: NA
Location:  41.94°N, 25.57°E
Report Text: LBPD 241700Z 11003MPS 9999 -DZ SCT024 BKN040 OVC070 06/04 Q1026 NOSIG
Loading
Personal Weather Stations






























Interactive Weather Map New forecast layout! Learn more

10-Day Weather Forecast

Advertisements
Track Severe Weather on mobile